Time;durP1;ratioP1;P1;durP2;ratioP2;P2;SDS_P1;SDS_P2;PMS_P1;PMS_P2;Temp;Humidity;BMP_temperature;BMP_pressure;BME280_temperature;BME280_humidity;BME280_pressure;Samples;Min_cycle;Max_cycle;Signal;HPM_P1;HPM_P2
2022/06/27 00:00:25;;;;;;;4.18;1.25;;;;;;;22.78;41.50;100615.84;4989415;28;20031;-84
2022/06/27 00:02:51;;;;;;;3.75;1.48;;;;;;;22.36;42.24;100627.75;4989485;28;20031;-84
2022/06/27 00:05:16;;;;;;;2.95;0.98;;;;;;;22.41;42.07;100635.72;4989359;28;20030;-86
2022/06/27 00:07:42;;;;;;;6.93;1.50;;;;;;;22.22;42.70;100638.84;4973034;28;20030;-85
2022/06/27 00:10:08;;;;;;;7.22;1.65;;;;;;;21.85;43.48;100634.38;4989294;28;20471;-84
2022/06/27 00:12:36;;;;;;;3.50;1.27;;;;;;;21.96;43.22;100637.97;4991545;28;20130;-87
2022/06/27 00:15:03;;;;;;;6.85;1.63;;;;;;;21.99;43.07;100647.50;4993005;28;20034;-84
2022/06/27 00:17:28;;;;;;;5.78;1.70;;;;;;;22.01;42.83;100648.72;4992939;28;20031;-86
2022/06/27 00:19:54;;;;;;;4.78;1.10;;;;;;;21.58;44.34;100645.78;4993181;28;20041;-84
2022/06/27 00:22:20;;;;;;;5.32;1.45;;;;;;;21.83;43.45;100647.84;4992691;28;20109;-83
2022/06/27 00:24:46;;;;;;;5.18;1.40;;;;;;;21.54;44.19;100642.19;4977697;28;20058;-84
2022/06/27 00:27:11;;;;;;;6.93;1.70;;;;;;;21.40;44.60;100656.00;4977807;28;20122;-85
2022/06/27 00:29:37;;;;;;;7.72;1.55;;;;;;;21.51;44.08;100656.84;4992813;28;20129;-84
2022/06/27 00:32:04;;;;;;;3.78;1.33;;;;;;;21.54;43.85;100658.88;4992691;28;20367;-87
2022/06/27 00:34:29;;;;;;;7.18;1.95;;;;;;;21.30;44.69;100651.97;4992779;28;20058;-84
2022/06/27 00:36:55;;;;;;;5.80;2.22;;;;;;;21.25;44.46;100646.78;4992793;28;20050;-86
2022/06/27 00:39:21;;;;;;;5.65;1.70;;;;;;;21.29;44.27;100660.69;4976414;28;20516;-85
2022/06/27 00:41:47;;;;;;;5.60;1.42;;;;;;;21.50;43.74;100663.59;4977415;28;20540;-83
2022/06/27 00:44:36;;;;;;;6.50;1.67;;;;;;;21.54;43.54;100667.22;4992850;28;20027;-87
2022/06/27 00:47:10;;;;;;;4.53;1.30;;;;;;;21.40;43.52;100672.69;4976438;28;20109;-84
2022/06/27 00:49:36;;;;;;;6.18;1.27;;;;;;;21.25;43.93;100666.22;4992708;28;20474;-85
2022/06/27 00:52:04;;;;;;;5.95;2.10;;;;;;;21.45;43.48;100677.06;4992719;28;20038;-83
2022/06/27 00:54:31;;;;;;;7.15;1.30;;;;;;;21.50;43.46;100677.50;4992494;28;20428;-87
2022/06/27 00:56:57;;;;;;;9.43;1.95;;;;;;;21.14;44.57;100686.75;4992204;28;20062;-83
2022/06/27 00:59:23;;;;;;;6.65;2.05;;;;;;;21.50;43.43;100685.84;4977227;28;20554;-84
2022/06/27 01:01:49;;;;;;;6.15;2.17;;;;;;;21.52;43.52;100691.81;4992368;28;20115;-84
2022/06/27 01:04:15;;;;;;;6.75;3.13;;;;;;;21.49;43.35;100686.25;4992195;28;20054;-84
2022/06/27 01:06:41;;;;;;;5.93;1.40;;;;;;;21.65;42.81;100689.50;4975914;28;20066;-86
2022/06/27 01:09:07;;;;;;;6.20;1.23;;;;;;;21.80;42.62;100687.59;4977086;28;20492;-86
2022/06/27 01:11:33;;;;;;;11.43;2.33;;;;;;;21.52;43.13;100691.81;4992001;28;20038;-83
2022/06/27 01:13:59;;;;;;;4.65;1.50;;;;;;;21.36;43.60;100688.53;4975936;28;20408;-84
2022/06/27 01:16:25;;;;;;;7.55;1.75;;;;;;;21.72;42.86;100691.53;4976617;28;20030;-85
2022/06/27 01:18:51;;;;;;;6.05;2.30;;;;;;;21.37;43.59;100695.69;4975706;28;20549;-84
2022/06/27 01:21:25;;;;;;;6.80;1.52;;;;;;;21.52;43.01;100699.34;4976825;28;20077;-85
2022/06/27 01:23:52;;;;;;;7.63;2.17;;;;;;;21.50;43.09;100696.16;4974596;28;20409;-84
2022/06/27 01:26:19;;;;;;;13.02;2.67;;;;;;;21.39;43.10;100698.09;4975530;28;20051;-84
2022/06/27 01:28:45;;;;;;;6.82;1.63;;;;;;;21.33;43.23;100694.88;4991747;28;20031;-84
2022/06/27 01:31:12;;;;;;;6.88;2.00;;;;;;;21.50;42.83;100696.97;4992125;28;20515;-84
2022/06/27 01:33:38;;;;;;;4.95;2.10;;;;;;;21.57;42.61;100694.22;4975281;28;20045;-84
2022/06/27 01:38:55;;;;;;;7.45;1.40;;;;;;;21.88;41.83;100703.91;4976998;28;20648;-83
2022/06/27 01:41:20;;;;;;;9.70;1.77;;;;;;;21.94;41.70;100704.34;4991695;28;20035;-84
2022/06/27 01:43:48;;;;;;;10.00;2.75;;;;;;;22.09;41.24;100702.44;4975482;28;20093;-86
2022/06/27 01:46:14;;;;;;;6.38;1.55;;;;;;;22.32;40.61;100699.31;4991687;28;20058;-86
2022/06/27 01:48:40;;;;;;;4.55;1.50;;;;;;;21.81;41.92;100697.53;4976195;28;20035;-86
2022/06/27 01:51:08;;;;;;;6.63;1.92;;;;;;;22.13;41.25;100719.94;4974344;28;20066;-87
2022/06/27 01:53:36;;;;;;;5.35;2.13;;;;;;;22.13;41.29;100708.78;4976072;28;20035;-84
2022/06/27 01:56:02;;;;;;;7.13;1.30;;;;;;;22.12;41.16;100719.13;4991197;28;20448;-85
2022/06/27 01:58:28;;;;;;;5.25;1.33;;;;;;;22.35;40.67;100709.66;4976234;28;20035;-83
2022/06/27 02:00:54;;;;;;;4.75;1.45;;;;;;;22.24;40.88;100712.44;4990978;28;20035;-87
2022/06/27 02:03:20;;;;;;;5.45;1.40;;;;;;;22.34;40.45;100708.88;4991151;28;20027;-87
2022/06/27 02:05:46;;;;;;;10.05;1.48;;;;;;;22.22;40.76;100714.00;4975857;28;20031;-85
2022/06/27 02:08:13;;;;;;;3.97;1.17;;;;;;;22.34;40.37;100719.22;4991209;28;20065;-87
2022/06/27 02:10:39;;;;;;;6.13;1.38;;;;;;;22.37;40.26;100715.66;4991105;28;20062;-84
2022/06/27 02:13:05;;;;;;;5.35;1.60;;;;;;;22.38;40.28;100717.25;4990471;28;20058;-84
2022/06/27 02:15:31;;;;;;;6.50;1.77;;;;;;;22.01;41.11;100718.28;4975994;28;20046;-83
2022/06/27 02:17:57;;;;;;;8.13;2.90;;;;;;;22.18;40.51;100719.56;4974967;28;20030;-85
2022/06/27 02:20:23;;;;;;;6.32;1.42;;;;;;;22.11;40.81;100727.88;4990627;28;20039;-85
2022/06/27 02:22:49;;;;;;;10.75;1.77;;;;;;;22.23;40.37;100732.31;4974454;28;20726;-85
2022/06/27 02:25:15;;;;;;;9.05;1.48;;;;;;;21.84;41.32;100732.91;4974438;28;20536;-86
2022/06/27 02:27:43;;;;;;;3.85;1.15;;;;;;;21.88;40.96;100728.94;4990772;28;20038;-86
2022/06/27 02:30:09;;;;;;;9.15;1.35;;;;;;;21.95;40.79;100728.19;4990566;28;20038;-87
2022/06/27 02:32:35;;;;;;;4.65;1.25;;;;;;;22.06;40.60;100728.22;4990545;28;20066;-83
2022/06/27 02:35:01;;;;;;;8.55;1.73;;;;;;;21.66;41.32;100732.00;4985275;28;20069;-87
2022/06/27 02:37:29;;;;;;;3.70;1.00;;;;;;;21.58;41.67;100734.75;4974017;28;20035;-86
2022/06/27 02:39:55;;;;;;;6.95;1.33;;;;;;;21.90;40.56;100736.91;4974464;28;20174;-85
2022/06/27 02:42:23;;;;;;;6.78;1.35;;;;;;;22.00;40.53;100741.72;4970986;28;20039;-86
2022/06/27 02:44:49;;;;;;;6.53;1.73;;;;;;;22.01;40.37;100737.75;4956060;28;20035;-85
2022/06/27 02:47:20;;;;;;;7.40;1.23;;;;;;;22.06;40.15;100740.13;4971006;28;20027;-84
2022/06/27 02:49:46;;;;;;;4.20;1.48;;;;;;;21.75;40.76;100743.56;4956093;28;20039;-87
2022/06/27 02:52:31;;;;;;;6.15;1.52;;;;;;;21.76;40.82;100743.16;4955902;28;20421;-87
2022/06/27 02:55:03;;;;;;;6.38;1.23;;;;;;;21.75;40.76;100743.56;4955906;28;20601;-83
2022/06/27 02:57:40;;;;;;;9.27;1.65;;;;;;;21.38;40.98;100750.09;4955717;28;20035;-84
2022/06/27 03:00:07;;;;;;;7.28;1.65;;;;;;;21.85;40.25;100749.19;4955907;28;20102;-84
2022/06/27 03:02:36;;;;;;;9.10;1.90;;;;;;;21.50;41.09;100746.22;4980726;28;20026;-86
2022/06/27 03:05:02;;;;;;;4.30;1.27;;;;;;;21.75;40.59;100757.47;4990064;28;20543;-85
2022/06/27 03:07:27;;;;;;;9.77;2.03;;;;;;;21.71;40.41;100756.66;4974446;28;20027;-85
2022/06/27 03:09:53;;;;;;;11.60;1.98;;;;;;;21.76;40.13;100759.06;4974899;28;20110;-84
2022/06/27 03:12:19;;;;;;;9.13;2.70;;;;;;;21.70;40.53;100763.41;4974773;28;20031;-85
2022/06/27 03:14:45;;;;;;;9.55;1.73;;;;;;;21.55;40.65;100757.78;4974877;28;20053;-84
2022/06/27 03:17:11;;;;;;;8.98;2.00;;;;;;;21.54;40.59;100755.38;4989675;28;20035;-85
2022/06/27 03:19:37;;;;;;;5.68;1.58;;;;;;;21.49;40.58;100762.09;4973670;28;20538;-84
2022/06/27 03:22:03;;;;;;;6.57;1.77;;;;;;;21.20;41.20;100758.25;4974745;28;20031;-86
2022/06/27 03:24:28;;;;;;;3.85;1.80;;;;;;;21.28;40.86;100753.59;4973096;28;20102;-86
2022/06/27 03:26:54;;;;;;;9.15;1.77;;;;;;;21.28;40.51;100746.03;4974645;28;20049;-86
2022/06/27 03:29:19;;;;;;;7.60;2.35;;;;;;;21.32;40.79;100759.97;4974770;28;20113;-84
2022/06/27 03:31:45;;;;;;;5.20;1.25;;;;;;;21.04;41.34;100750.19;4974671;28;20031;-86
2022/06/27 03:34:11;;;;;;;9.55;1.92;;;;;;;21.22;41.14;100755.09;4973058;28;20082;-84
2022/06/27 03:36:38;;;;;;;11.80;1.90;;;;;;;20.99;41.60;100756.09;4974565;28;20023;-83
2022/06/27 03:39:04;;;;;;;9.85;2.00;;;;;;;21.29;40.99;100764.31;4974498;28;20031;-85
2022/06/27 03:41:30;;;;;;;8.73;2.67;;;;;;;21.40;40.63;100767.19;4973321;28;20474;-84
2022/06/27 03:43:56;;;;;;;11.30;2.63;;;;;;;21.30;40.98;100767.88;4973134;28;20037;-84
2022/06/27 03:46:21;;;;;;;12.70;2.47;;;;;;;21.50;40.56;100772.03;4989194;28;20030;-87
2022/06/27 03:51:31;;;;;;;9.55;2.38;;;;;;;21.13;41.44;100780.44;4974416;28;20030;-84
2022/06/27 03:53:56;;;;;;;8.35;2.78;;;;;;;21.28;41.16;100775.81;4974273;28;20425;-85
2022/06/27 03:56:22;;;;;;;9.00;2.15;;;;;;;21.49;40.53;100777.97;4972837;28;20054;-86
2022/06/27 03:58:48;;;;;;;11.52;3.33;;;;;;;21.46;40.51;100779.56;4972829;28;20031;-84
2022/06/27 04:01:13;;;;;;;9.55;1.65;;;;;;;21.50;40.42;100780.34;4973093;28;20029;-86
2022/06/27 04:03:39;;;;;;;15.38;3.33;;;;;;;21.52;40.64;100789.09;4989126;28;20026;-84
2022/06/27 04:06:05;;;;;;;6.20;1.95;;;;;;;21.43;40.64;100788.66;4989307;28;20516;-84
2022/06/27 04:08:30;;;;;;;6.18;1.58;;;;;;;21.00;41.51;100793.00;4989072;28;20486;-83
2022/06/27 04:10:56;;;;;;;9.07;2.22;;;;;;;21.21;40.37;100793.19;4972723;28;20387;-84
2022/06/27 04:13:22;;;;;;;12.75;2.45;;;;;;;21.10;41.03;100797.06;4988865;28;20384;-85
2022/06/27 04:15:48;;;;;;;12.45;2.75;;;;;;;21.09;40.96;100801.03;4989021;28;20027;-84
2022/06/27 04:18:13;;;;;;;12.20;2.72;;;;;;;21.11;40.75;100799.47;4988848;28;20027;-85
2022/06/27 04:20:39;;;;;;;10.65;2.55;;;;;;;21.05;40.81;100798.22;4974081;28;20031;-83
2022/06/27 04:23:06;;;;;;;13.32;3.13;;;;;;;20.94;40.81;100806.47;4974014;28;20089;-86
2022/06/27 04:25:32;;;;;;;7.47;1.80;;;;;;;20.90;40.92;100800.06;4973687;28;20047;-86
2022/06/27 04:27:58;;;;;;;17.55;3.25;;;;;;;20.72;41.45;100811.00;4973955;28;20161;-85
2022/06/27 04:30:25;;;;;;;8.82;2.50;;;;;;;20.81;41.29;100812.66;4974000;28;20102;-84
2022/06/27 04:32:51;;;;;;;10.48;3.08;;;;;;;20.70;41.28;100818.88;4974076;28;20046;-86
2022/06/27 04:35:17;;;;;;;11.98;2.47;;;;;;;20.56;41.59;100815.16;4988874;28;20473;-85
2022/06/27 04:37:43;;;;;;;8.65;2.38;;;;;;;20.41;41.89;100820.53;4973747;28;20031;-86
2022/06/27 04:40:11;;;;;;;10.82;2.80;;;;;;;20.44;41.73;100827.31;4973645;28;20029;-85
2022/06/27 04:42:37;;;;;;;11.02;2.00;;;;;;;20.47;41.55;100830.13;4973673;28;20101;-85
2022/06/27 04:45:05;;;;;;;13.90;3.60;;;;;;;20.60;41.50;100832.66;4973871;28;20109;-86
2022/06/27 04:47:31;;;;;;;14.38;4.10;;;;;;;20.69;41.09;100838.69;4972819;28;20023;-87
2022/06/27 04:49:57;;;;;;;9.25;2.47;;;;;;;20.43;41.57;100843.13;4973791;28;20078;-84
2022/06/27 04:52:23;;;;;;;8.88;2.60;;;;;;;20.25;41.70;100839.31;4973800;28;20074;-83
2022/06/27 04:54:50;;;;;;;12.77;3.08;;;;;;;20.59;40.91;100840.19;4972702;28;20030;-83
2022/06/27 04:57:16;;;;;;;14.25;2.95;;;;;;;20.58;40.76;100851.66;4972535;28;20109;-85
2022/06/27 04:59:41;;;;;;;13.07;2.58;;;;;;;20.71;40.53;100847.47;4990698;28;20114;-85
2022/06/27 05:02:08;;;;;;;14.48;3.63;;;;;;;20.80;40.28;100850.75;4975839;28;20053;-83
2022/06/27 05:04:34;;;;;;;14.65;3.15;;;;;;;20.90;40.14;100855.59;4976097;28;20085;-84
2022/06/27 05:07:01;;;;;;;13.98;3.22;;;;;;;20.88;40.07;100849.63;4976138;28;20027;-87
2022/06/27 05:09:26;;;;;;;11.90;2.45;;;;;;;20.76;40.24;100856.25;4977011;28;20030;-83
2022/06/27 05:11:54;;;;;;;9.10;2.65;;;;;;;20.91;40.27;100859.97;4979745;28;20070;-87
2022/06/27 05:14:20;;;;;;;16.92;2.35;;;;;;;20.95;40.25;100855.28;4978208;28;20062;-86
2022/06/27 05:16:45;;;;;;;10.93;3.15;;;;;;;21.03;40.27;100856.94;4977125;28;20484;-89
2022/06/27 05:19:12;;;;;;;12.13;3.58;;;;;;;21.05;39.95;100862.91;4976240;28;20508;-86
2022/06/27 05:21:38;;;;;;;13.05;3.10;;;;;;;20.96;40.14;100856.06;4977217;28;20026;-87
2022/06/27 05:24:04;;;;;;;8.80;1.95;;;;;;;20.83;40.29;100869.41;4992290;28;20035;-87
2022/06/27 05:26:29;;;;;;;8.27;2.72;;;;;;;20.95;39.89;100862.81;4991652;28;20051;-89
2022/06/27 05:28:55;;;;;;;16.92;2.97;;;;;;;20.97;39.95;100872.34;4975442;28;20397;-87
2022/06/27 05:31:21;;;;;;;9.60;2.45;;;;;;;20.64;40.20;100848.19;4975877;28;20050;-88
2022/06/27 05:33:47;;;;;;;8.70;3.42;;;;;;;20.92;39.59;100869.09;4977204;28;20065;-88
2022/06/27 05:36:12;;;;;;;10.77;2.92;;;;;;;20.99;39.62;100872.75;4992087;28;20508;-90
2022/06/27 05:38:39;;;;;;;13.05;2.15;;;;;;;21.15;39.08;100875.31;4977065;28;20031;-87
2022/06/27 05:41:05;;;;;;;21.85;4.55;;;;;;;21.38;38.72;100883.50;4975811;28;20031;-87
2022/06/27 05:43:31;;;;;;;7.90;2.40;;;;;;;21.48;38.46;100884.78;4991682;28;20041;-84
2022/06/27 05:45:57;;;;;;;16.38;3.30;;;;;;;21.23;38.74;100888.09;4991756;28;20027;-85
2022/06/27 05:48:22;;;;;;;6.82;2.28;;;;;;;21.09;39.50;100895.50;4991945;28;20389;-88
2022/06/27 05:50:48;;;;;;;9.52;2.42;;;;;;;21.03;39.47;100892.25;4976462;28;20031;-83
2022/06/27 05:53:14;;;;;;;9.90;2.15;;;;;;;21.14;39.30;100900.69;4991415;28;20046;-84
2022/06/27 05:55:40;;;;;;;13.77;2.83;;;;;;;21.06;39.48;100897.03;4975200;28;20425;-83
2022/06/27 05:58:08;;;;;;;9.90;2.28;;;;;;;20.81;39.64;100893.19;4976141;28;20030;-84
2022/06/27 06:00:34;;;;;;;12.52;3.15;;;;;;;21.19;39.08;100903.13;4991089;28;20481;-84
2022/06/27 06:03:00;;;;;;;20.50;3.47;;;;;;;21.32;38.91;100901.72;4976006;28;20023;-88
2022/06/27 06:05:26;;;;;;;7.38;2.53;;;;;;;21.33;38.68;100911.66;4991499;28;20034;-85
2022/06/27 06:07:51;;;;;;;14.10;3.03;;;;;;;21.65;38.41;100919.50;4976708;28;20031;-88
2022/06/27 06:10:19;;;;;;;10.10;2.50;;;;;;;22.21;37.32;100915.56;4990938;28;20551;-83
2022/06/27 06:12:45;;;;;;;13.73;2.60;;;;;;;22.17;37.19;100912.78;4974681;28;20027;-83
2022/06/27 06:15:11;;;;;;;12.43;2.53;;;;;;;22.42;36.52;100916.47;4975876;28;20101;-87
2022/06/27 06:17:37;;;;;;;5.97;1.80;;;;;;;21.96;37.84;100924.50;4991538;28;20489;-86
2022/06/27 06:20:05;;;;;;;9.95;2.33;;;;;;;21.96;37.70;100935.63;4991261;28;20026;-88
2022/06/27 06:22:31;;;;;;;15.00;3.60;;;;;;;22.01;37.96;100938.06;4976010;28;20105;-84
2022/06/27 06:24:57;;;;;;;9.55;2.25;;;;;;;22.39;37.22;100936.75;4993841;28;20045;-86
2022/06/27 06:27:23;;;;;;;13.70;3.63;;;;;;;22.21;37.35;100940.59;4980836;28;20377;-84
2022/06/27 06:29:49;;;;;;;13.75;4.70;;;;;;;21.86;37.76;100936.34;4986680;28;20029;-85
2022/06/27 06:32:15;;;;;;;12.27;3.03;;;;;;;22.25;36.83;100949.78;4986193;28;20023;-87
2022/06/27 06:34:42;;;;;;;8.93;2.83;;;;;;;22.48;36.52;100947.53;4978781;28;20055;-88
2022/06/27 06:37:09;;;;;;;9.65;2.25;;;;;;;22.25;36.89;100947.00;4985075;28;20027;-86
2022/06/27 06:39:36;;;;;;;13.18;2.55;;;;;;;22.40;36.42;100934.78;4976682;28;20485;-86
2022/06/27 06:42:02;;;;;;;11.35;2.42;;;;;;;22.36;36.83;100942.28;4987553;28;20115;-86
2022/06/27 06:44:28;;;;;;;7.95;2.10;;;;;;;22.41;36.95;100947.50;4988059;28;20058;-83
2022/06/27 06:46:56;;;;;;;10.77;2.55;;;;;;;22.39;36.91;100952.66;4984349;28;20019;-88
2022/06/27 06:49:23;;;;;;;13.23;2.90;;;;;;;22.36;36.73;100947.88;4974353;28;20084;-86
2022/06/27 06:51:50;;;;;;;6.15;1.90;;;;;;;22.75;36.00;100950.06;4980344;28;20053;-86
2022/06/27 06:54:20;;;;;;;12.55;3.67;;;;;;;22.65;36.34;100963.56;4975290;28;20241;-84
2022/06/27 06:56:49;;;;;;;9.27;2.33;;;;;;;22.48;36.67;100955.09;4973715;28;20085;-83
2022/06/27 06:59:16;;;;;;;8.80;3.23;;;;;;;22.50;36.55;100961.06;4970578;28;20038;-84
2022/06/27 07:01:43;;;;;;;6.50;1.90;;;;;;;22.75;36.18;100973.16;4970438;28;20360;-83
2022/06/27 07:04:09;;;;;;;9.63;2.50;;;;;;;22.21;36.82;100966.44;4970421;28;20031;-83
2022/06/27 07:06:36;;;;;;;11.63;2.92;;;;;;;22.66;36.06;100975.47;4954103;29;20377;-82
2022/06/27 07:09:02;;;;;;;13.30;3.22;;;;;;;22.90;35.53;100980.44;4955578;28;20059;-89
2022/06/27 07:11:29;;;;;;;14.55;2.92;;;;;;;22.86;36.19;100978.81;4970312;28;20058;-81
2022/06/27 07:13:56;;;;;;;14.43;3.67;;;;;;;23.01;35.97;100980.47;4954265;29;20121;-83
2022/06/27 07:16:24;;;;;;;14.88;3.25;;;;;;;23.16;35.92;100981.31;4973066;28;20039;-85
2022/06/27 07:18:53;;;;;;;10.13;2.80;;;;;;;23.36;35.59;100984.56;4989758;28;20042;-84
2022/06/27 07:21:19;;;;;;;9.02;1.92;;;;;;;23.52;35.40;100988.59;4989203;28;20031;-83
2022/06/27 07:23:49;;;;;;;14.27;3.75;;;;;;;23.10;35.54;100989.25;4974650;28;20034;-83
2022/06/27 07:26:17;;;;;;;6.88;2.17;;;;;;;23.24;35.21;100994.88;4989520;28;20047;-85
2022/06/27 07:28:44;;;;;;;6.32;2.25;;;;;;;23.42;34.91;101000.50;4980096;28;20066;-85
2022/06/27 07:31:12;;;;;;;9.48;2.50;;;;;;;23.64;34.62;101001.38;4973621;28;20030;-83
2022/06/27 07:33:45;;;;;;;6.57;2.40;;;;;;;23.77;34.61;100999.81;5002234;28;20031;-83
2022/06/27 07:36:14;;;;;;;9.93;2.63;;;;;;;23.20;35.25;101005.25;4983324;28;20453;-83
2022/06/27 07:38:41;;;;;;;13.40;3.65;;;;;;;23.59;34.80;101010.13;4969649;28;20038;-83
2022/06/27 07:41:10;;;;;;;13.57;3.47;;;;;;;23.67;35.01;101017.34;4969943;28;20038;-84
2022/06/27 07:43:37;;;;;;;9.53;3.40;;;;;;;23.71;35.13;101009.75;4969817;28;20027;-85
2022/06/27 07:46:03;;;;;;;8.00;1.77;;;;;;;23.07;35.92;101026.28;4969901;28;20125;-85
2022/06/27 07:48:30;;;;;;;10.15;3.00;;;;;;;23.93;34.38;101020.94;4955095;28;20031;-86
2022/06/27 07:50:58;;;;;;;10.77;2.20;;;;;;;24.01;34.20;101019.75;4954881;28;20502;-85
2022/06/27 07:53:25;;;;;;;9.38;2.25;;;;;;;23.78;34.39;101017.34;4970054;28;20024;-86
2022/06/27 07:55:54;;;;;;;8.98;2.30;;;;;;;24.02;34.38;101018.56;4954875;28;20038;-85
2022/06/27 07:58:26;;;;;;;9.88;2.05;;;;;;;24.02;34.38;101022.16;4969779;28;20039;-84
2022/06/27 08:00:52;;;;;;;6.28;1.90;;;;;;;24.26;33.66;101025.38;4969956;28;20027;-84
2022/06/27 08:06:09;;;;;;;7.40;1.88;;;;;;;24.32;33.91;101013.41;4955024;29;20393;-84
2022/06/27 08:08:37;;;;;;;7.47;2.33;;;;;;;24.65;33.48;101022.56;4968958;28;20041;-84
2022/06/27 08:11:07;;;;;;;10.57;3.17;;;;;;;24.77;32.50;101026.91;4968887;28;20035;-84
2022/06/27 08:13:33;;;;;;;;;;;;;;;24.63;32.44;101027.72;4971887;28;20031;-84
2022/06/27 08:15:59;;;;;;;9.10;2.35;;;;;;;24.51;32.76;101033.75;4972402;28;19921;-85
2022/06/27 08:18:26;;;;;;;13.77;2.35;;;;;;;24.68;32.23;101032.91;4972369;28;20031;-85
2022/06/27 08:20:52;;;;;;;11.68;2.75;;;;;;;24.58;32.35;101026.16;4973989;28;20035;-86
2022/06/27 08:23:19;;;;;;;6.70;1.60;;;;;;;24.62;32.39;101028.94;4973186;28;20089;-86
2022/06/27 08:25:46;;;;;;;9.75;1.80;;;;;;;24.83;32.17;101025.28;4973153;28;20565;-86
2022/06/27 08:28:14;;;;;;;6.95;2.13;;;;;;;25.01;31.82;101025.22;4973304;28;20121;-85
2022/06/27 08:30:41;;;;;;;6.43;1.83;;;;;;;24.73;31.97;101035.31;4973127;28;20073;-86
2022/06/27 08:33:08;;;;;;;7.53;2.00;;;;;;;24.39;31.90;101040.53;4973731;28;20038;-86
2022/06/27 08:35:35;;;;;;;7.28;1.63;;;;;;;24.89;31.40;101035.66;4976752;28;20027;-86
2022/06/27 08:38:01;;;;;;;8.48;1.40;;;;;;;25.07;31.38;101024.44;4976727;28;20026;-87
2022/06/27 08:40:27;;;;;;;19.15;3.45;;;;;;;24.82;32.19;101041.25;4976751;28;20129;-86
2022/06/27 08:42:54;;;;;;;9.38;2.10;;;;;;;25.33;31.41;101042.72;4976969;28;20437;-88
2022/06/27 08:45:23;;;;;;;6.75;1.95;;;;;;;25.36;31.07;101036.28;4976747;28;20389;-85
2022/06/27 08:47:50;;;;;;;5.15;1.73;;;;;;;25.41;30.38;101044.28;4976755;28;20062;-86
2022/06/27 08:50:16;;;;;;;7.88;1.75;;;;;;;25.39;31.07;101043.06;4976972;28;20039;-85
2022/06/27 08:52:41;;;;;;;4.80;1.35;;;;;;;25.68;30.35;101040.91;4976940;28;20043;-88
2022/06/27 08:55:10;;;;;;;3.78;1.38;;;;;;;25.33;30.36;101042.72;4976677;28;20031;-86
2022/06/27 08:57:39;;;;;;;6.20;1.88;;;;;;;25.95;29.77;101050.38;4992902;28;20085;-86
2022/06/27 09:00:06;;;;;;;6.65;1.70;;;;;;;26.11;30.17;101052.66;4977804;28;20035;-87
2022/06/27 09:02:45;;;;;;;10.90;2.15;;;;;;;26.22;29.52;101044.97;4976459;28;20122;-86
2022/06/27 09:05:26;;;;;;;6.78;1.63;;;;;;;26.31;29.31;101049.31;4976424;28;20054;-85
2022/06/27 09:08:03;;;;;;;7.78;2.28;;;;;;;26.44;29.30;101053.97;4976370;28;20086;-87
2022/06/27 09:10:42;;;;;;;7.35;1.80;;;;;;;26.28;28.99;101062.91;4976038;28;20519;-86
2022/06/27 09:13:13;;;;;;;7.97;1.65;;;;;;;26.23;29.07;101060.56;4976251;28;20122;-86
2022/06/27 09:15:56;;;;;;;4.75;2.58;;;;;;;26.13;29.25;101067.03;4976370;28;20026;-87
2022/06/27 09:18:30;;;;;;;7.38;1.58;;;;;;;26.53;28.74;101068.34;4976442;28;20030;-86
2022/06/27 09:20:59;;;;;;;5.18;1.50;;;;;;;25.79;28.93;101069.66;4976138;28;20039;-87
2022/06/27 09:23:32;;;;;;;9.40;2.78;;;;;;;26.11;28.68;101080.66;4976200;28;20089;-86
2022/06/27 09:26:02;;;;;;;7.13;1.88;;;;;;;26.53;28.62;101075.94;4975694;28;20139;-88
2022/06/27 09:28:47;;;;;;;10.77;2.45;;;;;;;26.11;28.56;101080.66;4976134;28;20042;-87
2022/06/27 09:31:28;;;;;;;7.95;1.60;;;;;;;25.67;28.92;101075.69;4976025;28;20097;-87
2022/06/27 09:34:08;;;;;;;4.65;1.30;;;;;;;25.35;28.46;101095.44;4976074;28;20498;-86
2022/06/27 09:36:35;;;;;;;6.53;1.75;;;;;;;25.96;28.12;101079.94;4976097;28;20027;-87
2022/06/27 09:39:02;;;;;;;5.88;1.75;;;;;;;25.96;27.71;101079.94;4975891;28;20504;-85
2022/06/27 09:41:33;;;;;;;7.45;1.75;;;;;;;26.06;27.69;101078.28;4975984;28;20055;-86
2022/06/27 09:44:10;;;;;;;9.23;2.55;;;;;;;26.27;27.72;101085.72;4975446;28;20027;-87
2022/06/27 09:46:42;;;;;;;9.82;2.15;;;;;;;26.42;27.97;101078.03;4975492;28;20396;-87
2022/06/27 09:49:12;;;;;;;8.30;1.63;;;;;;;26.83;27.81;101072.44;4975524;28;20041;-85
2022/06/27 09:51:38;;;;;;;5.20;1.65;;;;;;;27.05;27.31;101070.22;4977147;28;20105;-85
2022/06/27 09:54:11;;;;;;;6.07;1.50;;;;;;;26.66;26.54;101071.38;4975546;28;20105;-86
2022/06/27 09:56:42;;;;;;;4.57;1.20;;;;;;;26.35;26.70;101067.66;4965486;28;20170;-85
2022/06/27 09:59:12;;;;;;;7.63;2.15;;;;;;;26.77;26.58;101071.31;4960298;28;20031;-85
2022/06/27 10:01:41;;;;;;;;;;;;;;;26.77;26.20;101066.50;4972946;28;20413;-87
2022/06/27 10:04:08;;;;;;;8.13;2.00;;;;;;;27.00;26.17;101067.84;4975371;28;20285;-86
2022/06/27 10:06:36;;;;;;;7.72;1.50;;;;;;;27.34;26.83;101076.28;4975587;28;20469;-85
2022/06/27 10:09:05;;;;;;;5.30;1.40;;;;;;;27.35;26.73;101077.88;4975060;28;20473;-86
2022/06/27 10:11:31;;;;;;;7.45;2.13;;;;;;;27.34;25.22;101077.06;4975532;28;20425;-90
2022/06/27 10:14:21;;;;;;;10.23;2.22;;;;;;;27.31;25.02;101075.13;4975021;28;20046;-88
2022/06/27 10:16:52;;;;;;;5.85;1.40;;;;;;;27.39;25.36;101073.00;4975188;28;20401;-88
2022/06/27 10:19:17;;;;;;;9.52;1.50;;;;;;;27.71;25.45;101069.00;4974780;28;20038;-85
2022/06/27 10:21:46;;;;;;;5.22;2.08;;;;;;;27.91;25.24;101067.09;4975015;28;20023;-85
2022/06/27 10:24:24;;;;;;;10.02;1.90;;;;;;;27.88;25.45;101065.94;4975124;28;20539;-88
2022/06/27 10:26:54;;;;;;;3.35;1.10;;;;;;;27.60;24.13;101072.72;4974703;28;20562;-86
2022/06/27 10:29:42;;;;;;;8.82;2.60;;;;;;;27.98;23.68;101072.63;4975836;28;20041;-85
2022/06/27 10:32:39;;;;;;;4.35;1.35;;;;;;;27.07;23.07;101085.41;4960282;28;20704;-85
2022/06/27 10:35:04;;;;;;;5.60;1.48;;;;;;;28.04;23.02;101079.34;4959959;28;20053;-87
2022/06/27 10:37:34;;;;;;;4.50;1.20;;;;;;;28.34;23.35;101078.50;4960872;28;20062;-84
2022/06/27 10:40:18;;;;;;;6.63;1.45;;;;;;;28.35;23.87;101070.84;4965627;28;20027;-85
2022/06/27 10:42:54;;;;;;;13.32;2.20;;;;;;;28.35;24.35;101068.06;4975999;28;20027;-88
2022/06/27 10:45:19;;;;;;;6.30;1.40;;;;;;;28.11;24.41;101070.81;4975024;28;20034;-90
2022/06/27 10:47:55;;;;;;;4.35;0.88;;;;;;;28.01;23.84;101068.16;4976083;28;20027;-87
2022/06/27 10:50:23;;;;;;;4.55;1.13;;;;;;;28.06;23.18;101064.88;4970545;28;20059;-89
2022/06/27 10:53:10;;;;;;;5.88;2.28;;;;;;;27.81;23.12;101068.88;4974981;28;20046;-88
2022/06/27 10:55:36;;;;;;;5.10;1.15;;;;;;;28.06;22.70;101079.72;4974109;28;20030;-86
2022/06/27 10:58:20;;;;;;;3.97;1.15;;;;;;;27.69;23.56;101079.88;4973977;28;20027;-89
2022/06/27 11:00:46;;;;;;;3.22;1.10;;;;;;;27.81;23.97;101073.66;4960173;28;20038;-87
2022/06/27 11:03:21;;;;;;;4.78;1.10;;;;;;;27.75;24.04;101078.97;4959973;28;20033;-87
2022/06/27 11:06:01;;;;;;;3.38;1.00;;;;;;;27.62;23.97;101075.91;4959576;28;20034;-88
2022/06/27 11:08:28;;;;;;;5.72;1.45;;;;;;;28.06;24.01;101079.72;4959252;28;20057;-87
2022/06/27 11:10:54;;;;;;;4.32;1.30;;;;;;;28.06;24.08;101087.34;4960236;28;20499;-86
2022/06/27 11:13:38;;;;;;;2.90;1.10;;;;;;;28.16;24.53;101089.97;4960907;28;20089;-87
2022/06/27 11:16:05;;;;;;;2.88;1.20;;;;;;;28.55;24.50;101085.75;4976631;28;20448;-87
2022/06/27 11:18:54;;;;;;;5.85;1.50;;;;;;;28.81;24.18;101086.09;4959645;28;20034;-87
2022/06/27 11:21:25;;;;;;;8.82;1.88;;;;;;;28.61;24.58;101086.84;4960907;28;20079;-88
2022/06/27 11:23:59;;;;;;;8.68;2.08;;;;;;;28.77;23.79;101091.78;4973150;28;20031;-88
2022/06/27 11:26:44;;;;;;;6.32;1.83;;;;;;;28.79;23.52;101094.16;4973802;28;20520;-86
2022/06/27 11:32:02;;;;;;;3.28;1.00;;;;;;;28.80;23.57;101087.34;4975470;28;20498;-88
2022/06/27 11:34:31;;;;;;;5.65;1.98;;;;;;;29.43;22.74;101087.31;4974345;28;20034;-88
2022/06/27 11:36:59;;;;;;;3.55;1.17;;;;;;;29.51;22.55;101080.31;4974087;28;20031;-89
2022/06/27 11:39:27;;;;;;;5.18;1.40;;;;;;;29.70;22.61;101085.13;4975460;28;20039;-90